Time;durP1;ratioP1;P1;durP2;ratioP2;P2;SDS_P1;SDS_P2;PMS_P1;PMS_P2;Temp;Humidity;BMP_temperature;BMP_pressure;BME280_temperature;BME280_humidity;BME280_pressure;Samples;Min_cycle;Max_cycle;Signal;HPM_P1;HPM_P2
2021/11/18 00:01:28;;;;;;;59.77;20.53;;;;;;;;;;5051537;28;20422;-49
2021/11/18 00:03:54;;;;;;;47.13;22.50;;;;;;;;;;5052262;28;20426;-48
2021/11/18 00:06:21;;;;;;;48.40;19.77;;;;;;;;;;5055671;28;20397;-51
2021/11/18 00:08:47;;;;;;;45.57;18.13;;;;;;;;;;5055728;28;20160;-49
2021/11/18 00:11:14;;;;;;;41.47;19.23;;;;;;;;;;5055710;28;20773;-49
2021/11/18 00:13:51;;;;;;;50.78;22.10;;;;;;;;;;5055625;28;20519;-48
2021/11/18 00:16:17;;;;;;;47.58;21.15;;;;;;;;;;5055502;28;20179;-48
2021/11/18 00:18:43;;;;;;;40.70;19.27;;;;;;;;;;5055621;28;20246;-48
2021/11/18 00:21:17;;;;;;;51.00;19.40;;;;;;;;;;5055452;28;20397;-48
2021/11/18 00:23:48;;;;;;;54.00;21.65;;;;;;;;;;5055198;28;20182;-48
2021/11/18 00:26:14;;;;;;;51.22;19.77;;;;;;;;;;5055559;28;20187;-50
2021/11/18 00:28:40;;;;;;;58.67;19.92;;;;;;;;;;5055411;28;20171;-48
2021/11/18 00:31:07;;;;;;;55.77;20.10;;;;;;;;;;5055352;28;20171;-49
2021/11/18 00:33:34;;;;;;;52.83;20.92;;;;;;;;;;5054907;28;20531;-48
2021/11/18 00:36:00;;;;;;;46.37;20.20;;;;;;;;;;5055137;28;20565;-49
2021/11/18 00:38:26;;;;;;;44.67;20.83;;;;;;;;;;5055197;28;20877;-48
2021/11/18 00:40:53;;;;;;;42.47;21.10;;;;;;;;;;5055150;28;20418;-48
2021/11/18 00:43:20;;;;;;;43.88;20.05;;;;;;;;;;5054763;28;20421;-49
2021/11/18 00:45:46;;;;;;;55.00;22.00;;;;;;;;;;5055015;28;20174;-48
2021/11/18 00:48:12;;;;;;;54.25;22.92;;;;;;;;;;5054744;28;20194;-48
2021/11/18 00:50:40;;;;;;;43.93;20.03;;;;;;;;;;5055017;28;20209;-49
2021/11/18 00:53:06;;;;;;;45.10;21.10;;;;;;;;;;5054649;28;21000;-50
2021/11/18 00:55:32;;;;;;;44.55;23.10;;;;;;;;;;5054619;28;20453;-49
2021/11/18 00:57:58;;;;;;;61.50;22.90;;;;;;;;;;5054885;28;20626;-49
2021/11/18 01:00:29;;;;;;;51.23;22.00;;;;;;;;;;5054660;28;20401;-50
2021/11/18 01:02:56;;;;;;;41.03;20.48;;;;;;;;;;5054409;28;20516;-48
2021/11/18 01:05:28;;;;;;;48.25;21.75;;;;;;;;;;5054706;28;20170;-48
2021/11/18 01:07:54;;;;;;;50.00;20.42;;;;;;;;;;5036881;28;20218;-48
2021/11/18 01:10:21;;;;;;;42.58;20.58;;;;;;;;;;5054753;28;20167;-47
2021/11/18 01:12:47;;;;;;;46.70;20.20;;;;;;;;;;5036462;28;20203;-48
2021/11/18 01:15:15;;;;;;;46.53;21.43;;;;;;;;;;5054299;28;20548;-48
2021/11/18 01:17:41;;;;;;;51.95;21.25;;;;;;;;;;5054396;28;20431;-48
2021/11/18 01:20:08;;;;;;;52.97;22.97;;;;;;;;;;5054388;28;20202;-49
2021/11/18 01:22:35;;;;;;;50.67;22.48;;;;;;;;;;5054095;28;20425;-48
2021/11/18 01:25:01;;;;;;;49.63;21.13;;;;;;;;;;5054306;28;20236;-48
2021/11/18 01:27:27;;;;;;;60.70;22.98;;;;;;;;;;5054252;28;20197;-48
2021/11/18 01:29:53;;;;;;;54.88;22.20;;;;;;;;;;5054198;28;20224;-49
2021/11/18 01:32:19;;;;;;;55.60;23.13;;;;;;;;;;5053988;28;20166;-48
2021/11/18 01:34:45;;;;;;;52.63;23.00;;;;;;;;;;5054009;28;20798;-48
2021/11/18 01:37:11;;;;;;;51.37;20.03;;;;;;;;;;5054018;28;20436;-48
2021/11/18 01:39:37;;;;;;;49.70;22.00;;;;;;;;;;5054018;28;20440;-48
2021/11/18 01:42:03;;;;;;;55.70;23.33;;;;;;;;;;5054024;28;20402;-48
2021/11/18 01:44:36;;;;;;;60.17;26.07;;;;;;;;;;5053578;28;20423;-48
2021/11/18 01:47:03;;;;;;;56.43;23.10;;;;;;;;;;5053823;28;20796;-48
2021/11/18 01:49:29;;;;;;;52.28;22.48;;;;;;;;;;5053904;28;20488;-48
2021/11/18 01:51:56;;;;;;;68.50;25.73;;;;;;;;;;5053795;28;20259;-48
2021/11/18 01:54:25;;;;;;;77.15;26.10;;;;;;;;;;5053412;28;20454;-47
2021/11/18 01:56:53;;;;;;;67.15;27.88;;;;;;;;;;5053087;28;20197;-48
2021/11/18 01:59:21;;;;;;;75.20;25.17;;;;;;;;;;5053706;28;20163;-48
2021/11/18 02:01:48;;;;;;;58.72;26.10;;;;;;;;;;5053451;28;20174;-47
2021/11/18 02:04:17;;;;;;;65.43;24.35;;;;;;;;;;5053168;28;20197;-49
2021/11/18 02:06:45;;;;;;;59.97;26.25;;;;;;;;;;5052723;28;20181;-48
2021/11/18 02:09:13;;;;;;;59.65;24.83;;;;;;;;;;5053885;28;20185;-48
2021/11/18 02:11:42;;;;;;;53.30;24.25;;;;;;;;;;5053287;28;20189;-48
2021/11/18 02:14:11;;;;;;;61.70;25.93;;;;;;;;;;5053063;28;20693;-48
2021/11/18 02:16:38;;;;;;;68.32;27.77;;;;;;;;;;5053221;28;20434;-48
2021/11/18 02:19:07;;;;;;;55.90;25.02;;;;;;;;;;5053505;28;20238;-48
2021/11/18 02:21:33;;;;;;;50.88;25.20;;;;;;;;;;5053281;28;20159;-48
2021/11/18 02:24:04;;;;;;;54.83;26.13;;;;;;;;;;5052855;28;20576;-49
2021/11/18 02:26:30;;;;;;;69.25;25.90;;;;;;;;;;5052858;28;20489;-49
2021/11/18 02:28:58;;;;;;;62.10;25.90;;;;;;;;;;5053112;28;20250;-49
2021/11/18 02:31:26;;;;;;;53.92;24.92;;;;;;;;;;5053097;28;20400;-48
2021/11/18 02:33:53;;;;;;;55.70;24.80;;;;;;;;;;5052732;28;20191;-48
2021/11/18 02:36:19;;;;;;;52.17;26.38;;;;;;;;;;5053077;28;20538;-48
2021/11/18 02:38:46;;;;;;;51.25;24.13;;;;;;;;;;5052840;28;20214;-49
2021/11/18 02:41:12;;;;;;;64.65;24.30;;;;;;;;;;5052929;28;20564;-49
2021/11/18 02:43:38;;;;;;;55.03;24.50;;;;;;;;;;5052565;28;20183;-47
2021/11/18 02:46:04;;;;;;;55.87;24.83;;;;;;;;;;5052768;28;20225;-48
2021/11/18 02:48:30;;;;;;;58.22;27.10;;;;;;;;;;5052742;28;20397;-48
2021/11/18 02:50:58;;;;;;;56.77;25.07;;;;;;;;;;5034865;28;20236;-47
2021/11/18 02:53:24;;;;;;;68.68;26.25;;;;;;;;;;5052162;28;20483;-48
2021/11/18 02:55:51;;;;;;;55.08;26.15;;;;;;;;;;5052371;28;20202;-48
2021/11/18 02:58:18;;;;;;;60.03;26.05;;;;;;;;;;5052574;28;20170;-50
2021/11/18 03:00:48;;;;;;;71.45;26.00;;;;;;;;;;5052553;28;20255;-48
2021/11/18 03:03:14;;;;;;;66.72;24.80;;;;;;;;;;5052148;28;20259;-50
2021/11/18 03:05:40;;;;;;;61.40;24.77;;;;;;;;;;5052242;28;20251;-48
2021/11/18 03:08:06;;;;;;;70.57;25.70;;;;;;;;;;5052363;28;20819;-48
2021/11/18 03:10:32;;;;;;;57.55;24.45;;;;;;;;;;5052308;28;20263;-48
2021/11/18 03:12:59;;;;;;;53.28;24.27;;;;;;;;;;5052034;28;20188;-50
2021/11/18 03:15:26;;;;;;;67.88;26.30;;;;;;;;;;5052165;28;20195;-49
2021/11/18 03:17:52;;;;;;;52.85;24.55;;;;;;;;;;5052192;28;20175;-48
2021/11/18 03:20:19;;;;;;;67.23;25.67;;;;;;;;;;5052128;28;20168;-48
2021/11/18 03:22:46;;;;;;;59.00;24.80;;;;;;;;;;5051841;28;20432;-49
2021/11/18 03:25:13;;;;;;;59.13;24.42;;;;;;;;;;5052101;28;20651;-48
2021/11/18 03:27:39;;;;;;;54.25;25.42;;;;;;;;;;5052039;28;20511;-48
2021/11/18 03:30:07;;;;;;;64.05;25.20;;;;;;;;;;5052015;28;20519;-47
2021/11/18 03:32:32;;;;;;;51.22;24.60;;;;;;;;;;5051702;28;20670;-48
2021/11/18 03:34:58;;;;;;;60.67;26.20;;;;;;;;;;5051806;28;20199;-48
2021/11/18 03:37:25;;;;;;;61.27;24.60;;;;;;;;;;5052010;28;20439;-48
2021/11/18 03:39:51;;;;;;;60.80;22.83;;;;;;;;;;5051265;28;20766;-48
2021/11/18 03:42:17;;;;;;;44.57;21.83;;;;;;;;;;5051646;28;20170;-48
2021/11/18 03:44:43;;;;;;;57.53;24.52;;;;;;;;;;5051642;28;20425;-48
2021/11/18 03:47:10;;;;;;;51.87;22.57;;;;;;;;;;5051788;28;20167;-49
2021/11/18 03:49:36;;;;;;;52.10;23.25;;;;;;;;;;5051711;28;20408;-48
2021/11/18 03:52:05;;;;;;;47.22;22.23;;;;;;;;;;5051654;28;20174;-48
2021/11/18 03:54:32;;;;;;;58.35;22.33;;;;;;;;;;5051559;28;20387;-48
2021/11/18 03:56:58;;;;;;;56.08;22.60;;;;;;;;;;5051529;28;20183;-48
2021/11/18 03:59:28;;;;;;;56.83;23.87;;;;;;;;;;5051697;28;20246;-48
2021/11/18 04:01:54;;;;;;;55.97;20.83;;;;;;;;;;5051592;28;20488;-48
2021/11/18 04:04:25;;;;;;;50.35;21.27;;;;;;;;;;5051370;28;20667;-49
2021/11/18 04:06:52;;;;;;;56.58;23.70;;;;;;;;;;5051543;28;20171;-48
2021/11/18 04:09:18;;;;;;;39.03;20.58;;;;;;;;;;5051581;28;20167;-48
2021/11/18 04:11:45;;;;;;;47.60;20.37;;;;;;;;;;5051561;28;20175;-50
2021/11/18 04:14:12;;;;;;;51.57;22.30;;;;;;;;;;5051220;28;20504;-48
2021/11/18 04:16:39;;;;;;;50.75;21.75;;;;;;;;;;5051886;28;20455;-49
2021/11/18 04:19:05;;;;;;;53.43;21.23;;;;;;;;;;5051536;28;20167;-48
2021/11/18 04:21:31;;;;;;;53.95;20.25;;;;;;;;;;5051582;28;20403;-49
2021/11/18 04:23:58;;;;;;;58.47;22.23;;;;;;;;;;5051188;28;20183;-48
2021/11/18 04:26:24;;;;;;;47.25;20.10;;;;;;;;;;5051406;28;20170;-48
2021/11/18 04:28:50;;;;;;;52.43;21.07;;;;;;;;;;5051426;28;20167;-48
2021/11/18 04:31:17;;;;;;;48.23;21.73;;;;;;;;;;5051273;28;20781;-49
2021/11/18 04:33:43;;;;;;;55.20;20.87;;;;;;;;;;5051137;28;20709;-48
2021/11/18 04:36:10;;;;;;;70.33;23.77;;;;;;;;;;5051954;28;20456;-47
2021/11/18 04:38:37;;;;;;;51.42;20.40;;;;;;;;;;5051504;28;20394;-47
2021/11/18 04:41:03;;;;;;;50.22;18.75;;;;;;;;;;5051424;28;20230;-47
2021/11/18 04:43:30;;;;;;;45.28;19.90;;;;;;;;;;5050907;28;20278;-47
2021/11/18 04:45:56;;;;;;;56.00;18.52;;;;;;;;;;5051230;28;20642;-47
2021/11/18 04:48:23;;;;;;;48.85;18.70;;;;;;;;;;5051847;28;20167;-47
2021/11/18 04:50:50;;;;;;;53.40;20.17;;;;;;;;;;5036253;28;20175;-48
2021/11/18 04:53:16;;;;;;;41.63;19.20;;;;;;;;;;5037470;28;20198;-47
2021/11/18 04:55:44;;;;;;;48.53;20.53;;;;;;;;;;5054752;28;20202;-47
2021/11/18 04:58:10;;;;;;;56.72;20.52;;;;;;;;;;5054836;28;20485;-48
2021/11/18 05:00:47;;;;;;;39.67;19.38;;;;;;;;;;5054969;28;20159;-47
2021/11/18 05:03:13;;;;;;;42.33;20.60;;;;;;;;;;5054583;28;20262;-47
2021/11/18 05:05:40;;;;;;;54.83;20.25;;;;;;;;;;5054714;28;20221;-47
2021/11/18 05:08:06;;;;;;;51.07;20.67;;;;;;;;;;5054681;28;20647;-49
2021/11/18 05:10:32;;;;;;;50.85;20.98;;;;;;;;;;5054704;28;20413;-48
2021/11/18 05:12:58;;;;;;;60.17;20.48;;;;;;;;;;5054356;28;20264;-49
2021/11/18 05:15:26;;;;;;;48.23;21.57;;;;;;;;;;5054467;28;20192;-50
2021/11/18 05:17:53;;;;;;;67.28;23.67;;;;;;;;;;5054476;28;20408;-48
2021/11/18 05:20:20;;;;;;;57.50;20.20;;;;;;;;;;5054550;28;20675;-49
2021/11/18 05:22:47;;;;;;;51.77;20.93;;;;;;;;;;5054678;28;20426;-47
2021/11/18 05:25:13;;;;;;;61.00;22.48;;;;;;;;;;5054273;28;20425;-47
2021/11/18 05:27:39;;;;;;;53.23;19.03;;;;;;;;;;5054325;28;20179;-48
2021/11/18 05:30:06;;;;;;;50.83;21.23;;;;;;;;;;5054354;28;20410;-48
2021/11/18 05:32:32;;;;;;;58.00;21.00;;;;;;;;;;5053842;28;20406;-47
2021/11/18 05:34:59;;;;;;;70.23;21.80;;;;;;;;;;5054151;28;20195;-47
2021/11/18 05:37:25;;;;;;;83.22;24.33;;;;;;;;;;5054146;28;20403;-47
2021/11/18 05:39:51;;;;;;;47.85;20.40;;;;;;;;;;5054159;28;20191;-47
2021/11/18 05:42:17;;;;;;;54.83;23.73;;;;;;;;;;5053959;28;20525;-47
2021/11/18 05:44:48;;;;;;;57.70;22.08;;;;;;;;;;5054007;28;20659;-47
2021/11/18 05:47:14;;;;;;;70.00;24.27;;;;;;;;;;5054195;28;20159;-50
2021/11/18 05:49:40;;;;;;;70.27;25.43;;;;;;;;;;5053935;28;20467;-47
2021/11/18 05:52:06;;;;;;;68.70;24.20;;;;;;;;;;5053849;28;20415;-53
2021/11/18 05:54:32;;;;;;;57.25;22.05;;;;;;;;;;5053597;28;20453;-47
2021/11/18 05:56:58;;;;;;;58.70;22.10;;;;;;;;;;5053775;28;20183;-47
2021/11/18 05:59:24;;;;;;;59.80;21.73;;;;;;;;;;5053717;28;20430;-47
2021/11/18 06:01:50;;;;;;;61.10;21.63;;;;;;;;;;5052876;28;20591;-47
2021/11/18 06:04:16;;;;;;;71.07;23.07;;;;;;;;;;5053441;28;20418;-47
2021/11/18 06:06:42;;;;;;;79.00;23.33;;;;;;;;;;5053693;28;20405;-47
2021/11/18 06:09:09;;;;;;;70.70;23.38;;;;;;;;;;5054219;28;20402;-47
2021/11/18 06:11:36;;;;;;;59.15;21.48;;;;;;;;;;5036324;28;20172;-47
2021/11/18 06:14:03;;;;;;;48.57;20.00;;;;;;;;;;5053162;28;20216;-48
2021/11/18 06:16:29;;;;;;;64.30;20.90;;;;;;;;;;5053740;28;20403;-48
2021/11/18 06:18:58;;;;;;;56.70;21.80;;;;;;;;;;5053598;28;20172;-48
2021/11/18 06:21:25;;;;;;;54.67;22.27;;;;;;;;;;5053431;28;20907;-47
2021/11/18 06:23:51;;;;;;;48.07;20.87;;;;;;;;;;5053174;28;20415;-48
2021/11/18 06:26:18;;;;;;;61.57;23.97;;;;;;;;;;5053230;28;20404;-48
2021/11/18 06:28:44;;;;;;;57.67;22.53;;;;;;;;;;5053285;28;20430;-47
2021/11/18 06:31:11;;;;;;;67.83;22.10;;;;;;;;;;5053308;28;20882;-47
2021/11/18 06:33:38;;;;;;;51.30;21.60;;;;;;;;;;5052932;28;20515;-49
2021/11/18 06:36:04;;;;;;;61.93;24.80;;;;;;;;;;5052716;28;20856;-48
2021/11/18 06:38:30;;;;;;;66.80;23.07;;;;;;;;;;5053061;28;20914;-48
2021/11/18 06:40:56;;;;;;;59.97;23.30;;;;;;;;;;5053047;28;20438;-48
2021/11/18 06:43:22;;;;;;;54.43;22.73;;;;;;;;;;5052642;28;20440;-49
2021/11/18 06:45:49;;;;;;;63.43;23.97;;;;;;;;;;5052962;28;20407;-47
2021/11/18 06:48:16;;;;;;;49.40;22.90;;;;;;;;;;5052931;28;20407;-47
2021/11/18 06:50:43;;;;;;;58.93;21.97;;;;;;;;;;5052763;28;20878;-47
2021/11/18 06:53:09;;;;;;;54.67;22.93;;;;;;;;;;5052510;28;20799;-48
2021/11/18 06:55:35;;;;;;;61.27;22.80;;;;;;;;;;5052627;28;20828;-47
2021/11/18 06:58:01;;;;;;;43.97;21.23;;;;;;;;;;5052685;28;20944;-48
2021/11/18 07:00:27;;;;;;;56.93;22.60;;;;;;;;;;5052659;28;20194;-48
2021/11/18 07:02:53;;;;;;;65.90;25.67;;;;;;;;;;5052328;28;20426;-50
2021/11/18 07:05:20;;;;;;;61.93;24.10;;;;;;;;;;5052565;28;20400;-50
2021/11/18 07:07:46;;;;;;;47.77;24.53;;;;;;;;;;5052423;28;20467;-48
2021/11/18 07:10:12;;;;;;;54.57;23.43;;;;;;;;;;5052578;28;20501;-50
2021/11/18 07:12:38;;;;;;;41.87;23.03;;;;;;;;;;5052014;28;20899;-49
2021/11/18 07:15:05;;;;;;;63.27;24.47;;;;;;;;;;5052795;28;20450;-47
2021/11/18 07:17:31;;;;;;;55.13;23.90;;;;;;;;;;5052249;28;20465;-47
2021/11/18 07:19:58;;;;;;;63.23;23.20;;;;;;;;;;5052219;28;20853;-47
2021/11/18 07:22:27;;;;;;;55.60;22.73;;;;;;;;;;5052018;28;20403;-47
2021/11/18 07:24:53;;;;;;;59.67;23.57;;;;;;;;;;5052200;28;20414;-47
2021/11/18 07:27:19;;;;;;;70.87;22.93;;;;;;;;;;5052327;28;20490;-48
2021/11/18 07:29:45;;;;;;;49.07;23.07;;;;;;;;;;5052291;28;20773;-48
2021/11/18 07:32:11;;;;;;;49.30;21.60;;;;;;;;;;5051938;28;20404;-48
2021/11/18 07:34:37;;;;;;;63.67;24.20;;;;;;;;;;5051861;28;20460;-49
2021/11/18 07:37:03;;;;;;;57.07;22.00;;;;;;;;;;5052110;28;20394;-47
2021/11/18 07:39:29;;;;;;;54.13;20.87;;;;;;;;;;5052179;28;20400;-47
2021/11/18 07:41:55;;;;;;;49.87;21.60;;;;;;;;;;5052036;28;20406;-47
2021/11/18 07:44:21;;;;;;;52.20;22.03;;;;;;;;;;5051760;28;20794;-47
2021/11/18 07:46:47;;;;;;;48.63;20.93;;;;;;;;;;5051896;28;20410;-48
2021/11/18 07:49:14;;;;;;;50.90;20.53;;;;;;;;;;5051798;28;20985;-47
2021/11/18 07:51:41;;;;;;;56.10;21.10;;;;;;;;;;5051922;28;20490;-47
2021/11/18 07:54:08;;;;;;;53.10;21.37;;;;;;;;;;5051465;28;20418;-48
2021/11/18 07:56:35;;;;;;;57.57;21.20;;;;;;;;;;5051714;28;20422;-47
2021/11/18 07:59:01;;;;;;;57.57;19.50;;;;;;;;;;5051903;28;20406;-48
2021/11/18 08:01:27;;;;;;;51.00;21.07;;;;;;;;;;5051626;28;20766;-49
2021/11/18 08:03:53;;;;;;;49.33;20.50;;;;;;;;;;5051472;28;20522;-48
2021/11/18 08:06:21;;;;;;;50.10;18.87;;;;;;;;;;5051649;28;20488;-48
2021/11/18 08:08:48;;;;;;;40.90;18.60;;;;;;;;;;5051718;28;20414;-50
2021/11/18 08:11:16;;;;;;;46.77;19.93;;;;;;;;;;5051645;28;20438;-47
2021/11/18 08:13:41;;;;;;;49.33;17.80;;;;;;;;;;5051566;28;20464;-47
2021/11/18 08:16:08;;;;;;;42.10;18.27;;;;;;;;;;5051456;28;20549;-47
2021/11/18 08:18:34;;;;;;;44.40;19.23;;;;;;;;;;5051677;28;20404;-47
2021/11/18 08:21:00;;;;;;;53.50;17.57;;;;;;;;;;5051704;28;20410;-48
2021/11/18 08:23:31;;;;;;;44.03;16.10;;;;;;;;;;5051320;28;20421;-47
2021/11/18 08:25:57;;;;;;;32.30;14.90;;;;;;;;;;5054019;28;20394;-48
2021/11/18 08:28:23;;;;;;;34.10;14.80;;;;;;;;;;5055575;28;20422;-48
2021/11/18 08:30:49;;;;;;;41.63;16.07;;;;;;;;;;5055319;28;20498;-51
2021/11/18 08:33:15;;;;;;;31.93;13.40;;;;;;;;;;5055189;28;20461;-47
2021/11/18 08:35:41;;;;;;;31.80;13.60;;;;;;;;;;5055163;28;20482;-50
2021/11/18 08:38:11;;;;;;;29.60;12.80;;;;;;;;;;5055372;28;20956;-47
2021/11/18 08:40:44;;;;;;;32.00;12.90;;;;;;;;;;5055240;28;20488;-49
2021/11/18 08:43:11;;;;;;;33.03;14.03;;;;;;;;;;5054850;28;20927;-48
2021/11/18 08:45:37;;;;;;;35.57;13.40;;;;;;;;;;5055067;28;20408;-48
2021/11/18 08:48:07;;;;;;;29.73;12.70;;;;;;;;;;5055115;28;20463;-47
2021/11/18 08:50:34;;;;;;;28.60;11.43;;;;;;;;;;5059329;28;20473;-48
2021/11/18 08:53:00;;;;;;;28.07;12.53;;;;;;;;;;5057689;28;20446;-51
2021/11/18 08:55:30;;;;;;;23.73;10.70;;;;;;;;;;5054007;28;20467;-48
2021/11/18 08:57:56;;;;;;;23.20;11.80;;;;;;;;;;5053736;28;20397;-48
2021/11/18 09:00:27;;;;;;;26.10;11.67;;;;;;;;;;5054179;28;20951;-48
2021/11/18 09:02:53;;;;;;;27.30;12.93;;;;;;;;;;5054510;28;20789;-49
2021/11/18 09:05:20;;;;;;;33.27;12.20;;;;;;;;;;5053805;28;20406;-49
2021/11/18 09:07:46;;;;;;;27.63;12.70;;;;;;;;;;5054774;28;20455;-48
2021/11/18 09:10:13;;;;;;;26.67;11.57;;;;;;;;;;5054903;28;20459;-48
2021/11/18 09:12:43;;;;;;;24.87;10.87;;;;;;;;;;5054446;28;20409;-48
2021/11/18 09:15:09;;;;;;;25.87;10.40;;;;;;;;;;5054703;28;20457;-49
2021/11/18 09:17:36;;;;;;;29.93;10.70;;;;;;;;;;5054717;28;20578;-48
2021/11/18 09:20:02;;;;;;;24.57;10.63;;;;;;;;;;5054600;28;20776;-48
2021/11/18 09:22:28;;;;;;;20.43;9.60;;;;;;;;;;5053171;28;20901;-49
2021/11/18 09:24:57;;;;;;;17.87;8.87;;;;;;;;;;5054227;28;20446;-51
2021/11/18 09:27:25;;;;;;;22.17;9.30;;;;;;;;;;5054242;28;20486;-49
2021/11/18 09:29:51;;;;;;;22.37;8.70;;;;;;;;;;5054247;28;20410;-48
2021/11/18 09:32:18;;;;;;;21.90;9.63;;;;;;;;;;5053972;28;20963;-48
2021/11/18 09:34:44;;;;;;;19.97;9.47;;;;;;;;;;5054072;28;20536;-48
2021/11/18 09:37:10;;;;;;;26.87;9.80;;;;;;;;;;5052737;28;20401;-49
2021/11/18 09:39:36;;;;;;;20.33;9.47;;;;;;;;;;5053944;28;20406;-48
2021/11/18 09:42:08;;;;;;;21.83;10.10;;;;;;;;;;5054013;28;20408;-49
2021/11/18 09:44:53;;;;;;;22.93;9.40;;;;;;;;;;5053803;28;20425;-48
2021/11/18 09:47:19;;;;;;;27.17;12.00;;;;;;;;;;5053985;28;20404;-47
2021/11/18 09:50:03;;;;;;;22.73;10.50;;;;;;;;;;5053942;28;20402;-48
2021/11/18 09:52:42;;;;;;;24.63;9.70;;;;;;;;;;5053619;28;20400;-49
2021/11/18 09:55:08;;;;;;;21.17;10.70;;;;;;;;;;5053840;28;20917;-47
2021/11/18 09:57:37;;;;;;;18.77;9.50;;;;;;;;;;5053697;28;20489;-48
2021/11/18 10:00:16;;;;;;;19.00;9.13;;;;;;;;;;5053761;28;20410;-47
2021/11/18 10:02:57;;;;;;;22.40;9.40;;;;;;;;;;5053618;28;20761;-48
2021/11/18 10:05:25;;;;;;;22.80;8.13;;;;;;;;;;5053633;28;20466;-48
2021/11/18 10:07:54;;;;;;;24.80;10.30;;;;;;;;;;5053585;28;20407;-49
2021/11/18 10:10:19;;;;;;;21.43;8.40;;;;;;;;;;5051947;28;20665;-51
2021/11/18 10:12:45;;;;;;;11.60;7.33;;;;;;;;;;5053041;28;20441;-50
2021/11/18 10:15:13;;;;;;;17.87;8.70;;;;;;;;;;5056500;28;20460;-48
2021/11/18 10:17:41;;;;;;;18.27;7.27;;;;;;;;;;5056829;28;20424;-49
2021/11/18 10:20:09;;;;;;;23.00;8.57;;;;;;;;;;5053207;28;20409;-50
2021/11/18 10:22:37;;;;;;;18.43;8.70;;;;;;;;;;5053597;28;20405;-48
2021/11/18 10:25:05;;;;;;;17.43;8.10;;;;;;;;;;5053231;28;20915;-48
2021/11/18 10:27:36;;;;;;;15.90;8.70;;;;;;;;;;5053397;28;20474;-51
2021/11/18 10:30:06;;;;;;;19.67;7.73;;;;;;;;;;5052994;28;20405;-51
2021/11/18 10:32:46;;;;;;;16.10;8.40;;;;;;;;;;5052079;28;20498;-49
2021/11/18 10:35:15;;;;;;;15.53;7.93;;;;;;;;;;5055010;28;20627;-52
2021/11/18 10:37:43;;;;;;;27.33;9.03;;;;;;;;;;5055584;28;20402;-53
2021/11/18 10:40:21;;;;;;;19.63;8.57;;;;;;;;;;5055740;28;20826;-53
2021/11/18 10:42:49;;;;;;;15.60;8.90;;;;;;;;;;5055068;28;20439;-51
2021/11/18 10:45:18;;;;;;;16.83;8.50;;;;;;;;;;5055623;28;20415;-52
2021/11/18 10:47:44;;;;;;;26.37;9.07;;;;;;;;;;5055208;28;20413;-50
2021/11/18 10:50:13;;;;;;;15.37;8.27;;;;;;;;;;5055363;28;20405;-52
2021/11/18 10:52:45;;;;;;;18.63;9.10;;;;;;;;;;5054820;28;20419;-51
2021/11/18 10:55:14;;;;;;;27.40;9.10;;;;;;;;;;5054899;28;20519;-52
2021/11/18 10:58:03;;;;;;;17.67;8.30;;;;;;;;;;5054420;28;20401;-51
2021/11/18 11:00:29;;;;;;;19.10;7.83;;;;;;;;;;5044736;28;20533;-53
2021/11/18 11:02:55;;;;;;;18.37;8.00;;;;;;;;;;5054316;28;20897;-53
2021/11/18 11:05:23;;;;;;;19.03;8.87;;;;;;;;;;5054376;28;20412;-52
2021/11/18 11:07:51;;;;;;;21.53;8.37;;;;;;;;;;5054812;28;20431;-53
2021/11/18 11:10:18;;;;;;;18.87;7.53;;;;;;;;;;5054883;28;20404;-52
2021/11/18 11:12:48;;;;;;;16.80;7.03;;;;;;;;;;5054767;28;20433;-51
2021/11/18 11:15:20;;;;;;;20.97;7.80;;;;;;;;;;5054489;28;20484;-50
2021/11/18 11:18:00;;;;;;;21.07;7.53;;;;;;;;;;5054799;28;20401;-52
2021/11/18 11:20:25;;;;;;;22.83;8.67;;;;;;;;;;5054785;28;20433;-52
2021/11/18 11:23:05;;;;;;;22.10;8.33;;;;;;;;;;5054216;28;20422;-53
2021/11/18 11:25:39;;;;;;;22.93;8.10;;;;;;;;;;5054170;28;20847;-54
2021/11/18 11:28:25;;;;;;;12.80;7.27;;;;;;;;;;5054782;28;21111;-52
2021/11/18 11:30:53;;;;;;;23.53;9.27;;;;;;;;;;5054814;28;20379;-53
2021/11/18 11:33:31;;;;;;;27.43;8.87;;;;;;;;;;5053687;28;20851;-52
2021/11/18 11:36:04;;;;;;;17.73;8.50;;;;;;;;;;5054043;28;20462;-53
2021/11/18 11:38:38;;;;;;;23.20;9.10;;;;;;;;;;5054466;28;20786;-51
2021/11/18 11:41:07;;;;;;;14.73;8.10;;;;;;;;;;5054794;28;20394;-53
2021/11/18 11:43:33;;;;;;;19.90;8.20;;;;;;;;;;5054049;28;20446;-51
2021/11/18 11:46:08;;;;;;;20.63;8.40;;;;;;;;;;5053768;28;20405;-51
2021/11/18 11:48:37;;;;;;;19.87;8.47;;;;;;;;;;5053995;28;20401;-53
2021/11/18 11:51:20;;;;;;;19.53;8.53;;;;;;;;;;5054314;28;20438;-51
2021/11/18 11:54:07;;;;;;;17.30;9.50;;;;;;;;;;5053663;28;20444;-52
2021/11/18 11:56:38;;;;;;;27.40;8.17;;;;;;;;;;5053683;28;20447;-52
2021/11/18 11:59:06;;;;;;;18.43;9.00;;;;;;;;;;5053257;28;20406;-51
2021/11/18 12:01:38;;;;;;;16.97;8.40;;;;;;;;;;5058613;28;21027;-52
2021/11/18 12:04:09;;;;;;;25.33;8.87;;;;;;;;;;5055107;28;20440;-50
2021/11/18 12:06:39;;;;;;;22.10;9.80;;;;;;;;;;5053692;28;20470;-53
2021/11/18 12:09:23;;;;;;;17.90;8.57;;;;;;;;;;5052572;28;20645;-50
2021/11/18 12:11:52;;;;;;;14.00;7.93;;;;;;;;;;5053228;28;20934;-52
2021/11/18 12:14:30;;;;;;;26.47;10.37;;;;;;;;;;5052553;28;20428;-53
2021/11/18 12:17:00;;;;;;;26.63;8.73;;;;;;;;;;5053848;28;20411;-52
2021/11/18 12:19:35;;;;;;;30.30;10.50;;;;;;;;;;5053289;28;20402;-49
2021/11/18 12:22:21;;;;;;;20.43;8.53;;;;;;;;;;5050918;28;20924;-50
2021/11/18 12:25:04;;;;;;;16.30;8.57;;;;;;;;;;5050774;28;20445;-49
2021/11/18 12:27:31;;;;;;;17.23;8.67;;;;;;;;;;5051343;28;20785;-51
2021/11/18 12:30:12;;;;;;;23.27;8.37;;;;;;;;;;5051400;28;20401;-50
2021/11/18 12:32:39;;;;;;;20.23;8.53;;;;;;;;;;5051084;28;20923;-49
2021/11/18 12:35:11;;;;;;;20.40;8.33;;;;;;;;;;5051310;28;20456;-48
2021/11/18 12:37:46;;;;;;;20.70;8.30;;;;;;;;;;5051202;28;20408;-48
2021/11/18 12:40:32;;;;;;;14.50;8.10;;;;;;;;;;5051226;28;20412;-49
2021/11/18 12:43:08;;;;;;;22.83;7.07;;;;;;;;;;5050854;28;20421;-48
2021/11/18 12:45:55;;;;;;;17.60;7.30;;;;;;;;;;5051209;28;20408;-49
2021/11/18 12:48:47;;;;;;;15.33;7.17;;;;;;;;;;5051053;28;20927;-48
2021/11/18 12:51:31;;;;;;;18.70;5.97;;;;;;;;;;5051014;28;20438;-48
2021/11/18 12:54:18;;;;;;;18.00;6.27;;;;;;;;;;5050811;28;20481;-48
2021/11/18 12:56:56;;;;;;;13.70;5.80;;;;;;;;;;5050845;28;20425;-50
2021/11/18 12:59:43;;;;;;;14.90;6.60;;;;;;;;;;5051045;28;20396;-49
2021/11/18 13:02:27;;;;;;;15.20;5.50;;;;;;;;;;5051006;28;20384;-49
2021/11/18 13:04:53;;;;;;;13.10;5.77;;;;;;;;;;5051106;28;20395;-49
2021/11/18 13:07:38;;;;;;;17.70;5.67;;;;;;;;;;5050997;28;20393;-51
2021/11/18 13:10:19;;;;;;;14.80;5.40;;;;;;;;;;5050820;28;20408;-48
2021/11/18 13:12:46;;;;;;;11.20;4.70;;;;;;;;;;5054135;28;20432;-48
2021/11/18 13:15:13;;;;;;;19.53;6.30;;;;;;;;;;5054483;28;20873;-48
2021/11/18 13:17:59;;;;;;;15.33;4.73;;;;;;;;;;5054538;28;20397;-48
2021/11/18 13:20:45;;;;;;;12.83;4.60;;;;;;;;;;5054278;28;20432;-49
2021/11/18 13:23:26;;;;;;;14.40;4.87;;;;;;;;;;5054115;28;20541;-48
2021/11/18 13:25:54;;;;;;;14.47;6.63;;;;;;;;;;5054407;28;20408;-50
2021/11/18 13:28:27;;;;;;;11.30;4.83;;;;;;;;;;5054395;28;20889;-49
2021/11/18 13:30:56;;;;;;;14.40;5.30;;;;;;;;;;5054329;28;20866;-48
2021/11/18 13:33:29;;;;;;;16.33;4.40;;;;;;;;;;5054019;28;20560;-49
2021/11/18 13:35:57;;;;;;;18.13;4.80;;;;;;;;;;5054212;28;20462;-49
2021/11/18 13:38:25;;;;;;;15.20;5.07;;;;;;;;;;5054313;28;20379;-49
2021/11/18 13:40:55;;;;;;;19.17;5.10;;;;;;;;;;5054248;28;20378;-49
2021/11/18 13:43:23;;;;;;;13.57;4.20;;;;;;;;;;5053733;28;20395;-49
2021/11/18 13:46:02;;;;;;;15.23;4.10;;;;;;;;;;5053940;28;20781;-49
2021/11/18 13:48:42;;;;;;;12.70;4.30;;;;;;;;;;5054070;28;20446;-49
2021/11/18 13:51:09;;;;;;;18.80;5.10;;;;;;;;;;5054125;28;20411;-51
2021/11/18 13:54:01;;;;;;;19.40;3.90;;;;;;;;;;5053671;28;20401;-49
2021/11/18 13:56:54;;;;;;;12.70;4.20;;;;;;;;;;5050054;28;20945;-49
2021/11/18 13:59:28;;;;;;;16.27;4.30;;;;;;;;;;5053909;28;20908;-48
2021/11/18 14:01:57;;;;;;;17.50;4.47;;;;;;;;;;5053830;28;20398;-48
2021/11/18 14:04:30;;;;;;;8.77;4.07;;;;;;;;;;5053482;28;20472;-49
2021/11/18 14:06:57;;;;;;;18.30;5.10;;;;;;;;;;5053388;28;20368;-54
2021/11/18 14:09:24;;;;;;;24.30;3.70;;;;;;;;;;5061755;28;20471;-49
2021/11/18 14:11:52;;;;;;;17.73;4.07;;;;;;;;;;5053585;28;20397;-51
2021/11/18 14:14:30;;;;;;;11.70;3.60;;;;;;;;;;5053963;28;20496;-52
2021/11/18 14:17:13;;;;;;;14.63;4.10;;;;;;;;;;5054643;28;20907;-48
2021/11/18 14:19:40;;;;;;;12.00;3.80;;;;;;;;;;5052735;28;20448;-48
2021/11/18 14:22:06;;;;;;;17.90;4.10;;;;;;;;;;5052887;28;20519;-51
2021/11/18 14:24:42;;;;;;;19.70;4.33;;;;;;;;;;5052956;28;20510;-51
2021/11/18 14:27:13;;;;;;;15.47;3.70;;;;;;;;;;5053315;28;20415;-51
2021/11/18 14:29:51;;;;;;;20.13;3.97;;;;;;;;;;5053173;28;20887;-48
2021/11/18 14:32:23;;;;;;;6.97;3.00;;;;;;;;;;5052970;28;20418;-49